sensor_id;sensor_type;location;lat;lon;timestamp;pressure;altitude;pressure_sealevel;temperature;humidity
77171;BME280;66144;50.020;14.422;2023-03-11T00:00:50;96470.16;;;7.40;62.65
77171;BME280;66144;50.020;14.422;2023-03-11T00:03:19;96486.84;;;7.34;64.26
77171;BME280;66144;50.020;14.422;2023-03-11T00:05:47;96484.81;;;7.12;64.88
77171;BME280;66144;50.020;14.422;2023-03-11T00:08:16;96510.31;;;7.10;65.74
77171;BME280;66144;50.020;14.422;2023-03-11T00:10:43;96503.13;;;6.78;66.15
77171;BME280;66144;50.020;14.422;2023-03-11T00:13:11;96519.84;;;6.72;66.37
77171;BME280;66144;50.020;14.422;2023-03-11T00:15:37;96534.53;;;6.77;67.25
77171;BME280;66144;50.020;14.422;2023-03-11T00:18:04;96541.22;;;6.59;68.51
77171;BME280;66144;50.020;14.422;2023-03-11T00:20:34;96542.97;;;6.40;68.05
77171;BME280;66144;50.020;14.422;2023-03-11T00:23:00;96582.94;;;6.34;69.68
77171;BME280;66144;50.020;14.422;2023-03-11T00:25:29;96599.13;;;6.20;69.26
77171;BME280;66144;50.020;14.422;2023-03-11T00:27:55;96608.34;;;5.98;69.98
77171;BME280;66144;50.020;14.422;2023-03-11T00:30:21;96636.63;;;5.84;70.90
77171;BME280;66144;50.020;14.422;2023-03-11T00:32:49;96646.81;;;5.75;70.28
77171;BME280;66144;50.020;14.422;2023-03-11T00:35:20;96645.94;;;5.26;70.17
77171;BME280;66144;50.020;14.422;2023-03-11T00:37:46;96671.41;;;4.98;70.72
77171;BME280;66144;50.020;14.422;2023-03-11T00:40:14;96671.16;;;4.79;71.13
77171;BME280;66144;50.020;14.422;2023-03-11T00:42:40;96687.94;;;4.82;72.05
77171;BME280;66144;50.020;14.422;2023-03-11T00:45:06;96683.56;;;4.52;73.03
77171;BME280;66144;50.020;14.422;2023-03-11T00:47:31;96703.97;;;4.43;73.04
77171;BME280;66144;50.020;14.422;2023-03-11T00:49:57;96700.34;;;4.34;72.60
77171;BME280;66144;50.020;14.422;2023-03-11T00:52:22;96693.38;;;4.30;72.29
77171;BME280;66144;50.020;14.422;2023-03-11T00:54:47;96700.06;;;4.26;72.76
77171;BME280;66144;50.020;14.422;2023-03-11T00:57:13;96710.69;;;4.29;72.78
77171;BME280;66144;50.020;14.422;2023-03-11T00:59:38;96711.72;;;4.33;73.40
77171;BME280;66144;50.020;14.422;2023-03-11T01:02:03;96713.78;;;4.31;72.18
77171;BME280;66144;50.020;14.422;2023-03-11T01:04:29;96713.50;;;4.28;71.00
77171;BME280;66144;50.020;14.422;2023-03-11T01:06:54;96722.28;;;4.27;71.59
77171;BME280;66144;50.020;14.422;2023-03-11T01:09:20;96725.16;;;4.30;70.34
77171;BME280;66144;50.020;14.422;2023-03-11T01:11:45;96722.31;;;4.22;69.67
77171;BME280;66144;50.020;14.422;2023-03-11T01:14:10;96724.88;;;4.27;68.41
77171;BME280;66144;50.020;14.422;2023-03-11T01:16:36;96721.78;;;4.25;66.84
77171;BME280;66144;50.020;14.422;2023-03-11T01:19:01;96732.63;;;4.27;66.95
77171;BME280;66144;50.020;14.422;2023-03-11T01:21:26;96729.00;;;4.28;65.60
77171;BME280;66144;50.020;14.422;2023-03-11T01:23:52;96735.75;;;4.34;65.75
77171;BME280;66144;50.020;14.422;2023-03-11T01:26:17;96730.59;;;4.34;65.36
77171;BME280;66144;50.020;14.422;2023-03-11T01:28:42;96746.34;;;4.37;64.62
77171;BME280;66144;50.020;14.422;2023-03-11T01:31:09;96741.47;;;4.41;63.49
77171;BME280;66144;50.020;14.422;2023-03-11T01:33:35;96759.53;;;4.46;61.90
77171;BME280;66144;50.020;14.422;2023-03-11T01:36:00;96755.16;;;4.46;63.16
77171;BME280;66144;50.020;14.422;2023-03-11T01:38:25;96753.09;;;4.48;62.43
77171;BME280;66144;50.020;14.422;2023-03-11T01:40:51;96758.53;;;4.52;62.04
77171;BME280;66144;50.020;14.422;2023-03-11T01:48:26;96770.94;;;4.55;61.46
77171;BME280;66144;50.020;14.422;2023-03-11T01:50:52;96778.16;;;4.48;61.21
77171;BME280;66144;50.020;14.422;2023-03-11T01:53:17;96767.03;;;4.47;60.28
77171;BME280;66144;50.020;14.422;2023-03-11T01:55:44;96783.84;;;4.50;60.12
77171;BME280;66144;50.020;14.422;2023-03-11T01:58:14;96772.72;;;4.44;59.93
77171;BME280;66144;50.020;14.422;2023-03-11T02:00:41;96786.69;;;4.48;61.14
77171;BME280;66144;50.020;14.422;2023-03-11T02:03:31;96790.59;;;4.56;62.01
77171;BME280;66144;50.020;14.422;2023-03-11T02:06:00;96802.22;;;4.54;61.60
77171;BME280;66144;50.020;14.422;2023-03-11T02:08:27;96788.75;;;4.46;62.10
77171;BME280;66144;50.020;14.422;2023-03-11T02:10:54;96794.69;;;4.42;62.47
77171;BME280;66144;50.020;14.422;2023-03-11T02:13:21;96799.34;;;4.40;62.69
77171;BME280;66144;50.020;14.422;2023-03-11T02:15:47;96797.53;;;4.40;63.64
77171;BME280;66144;50.020;14.422;2023-03-11T02:18:13;96806.31;;;4.34;62.96
77171;BME280;66144;50.020;14.422;2023-03-11T02:23:17;96813.75;;;4.26;62.98
77171;BME280;66144;50.020;14.422;2023-03-11T02:26:06;96822.50;;;4.14;63.05
77171;BME280;66144;50.020;14.422;2023-03-11T02:28:35;96826.94;;;4.19;65.13
77171;BME280;66144;50.020;14.422;2023-03-11T02:31:03;96815.31;;;4.22;65.36
77171;BME280;66144;50.020;14.422;2023-03-11T02:33:28;96834.38;;;4.10;64.50
77171;BME280;66144;50.020;14.422;2023-03-11T02:35:55;96833.31;;;4.06;65.13
77171;BME280;66144;50.020;14.422;2023-03-11T02:38:21;96843.38;;;4.03;65.34
77171;BME280;66144;50.020;14.422;2023-03-11T02:40:57;96847.81;;;4.12;65.46
77171;BME280;66144;50.020;14.422;2023-03-11T02:43:42;96853.94;;;3.96;64.56
77171;BME280;66144;50.020;14.422;2023-03-11T02:46:10;96857.00;;;3.93;65.09
77171;BME280;66144;50.020;14.422;2023-03-11T02:48:37;96862.22;;;3.98;64.90
77171;BME280;66144;50.020;14.422;2023-03-11T02:51:03;96866.31;;;3.94;65.78
77171;BME280;66144;50.020;14.422;2023-03-11T02:53:29;96871.94;;;3.86;65.52
77171;BME280;66144;50.020;14.422;2023-03-11T02:55:56;96874.03;;;3.89;65.14
77171;BME280;66144;50.020;14.422;2023-03-11T02:58:21;96879.44;;;3.83;65.55
77171;BME280;66144;50.020;14.422;2023-03-11T03:00:46;96882.03;;;3.88;65.14
77171;BME280;66144;50.020;14.422;2023-03-11T03:03:12;96885.63;;;3.81;65.64
77171;BME280;66144;50.020;14.422;2023-03-11T03:05:37;96881.19;;;3.77;65.37
77171;BME280;66144;50.020;14.422;2023-03-11T03:08:02;96882.50;;;3.79;66.76
77171;BME280;66144;50.020;14.422;2023-03-11T03:10:28;96867.47;;;3.71;66.46
77171;BME280;66144;50.020;14.422;2023-03-11T03:12:53;96880.09;;;3.68;65.77
77171;BME280;66144;50.020;14.422;2023-03-11T03:15:19;96888.38;;;3.70;66.16
77171;BME280;66144;50.020;14.422;2023-03-11T03:17:44;96893.53;;;3.70;65.97
77171;BME280;66144;50.020;14.422;2023-03-11T03:20:10;96903.84;;;3.65;66.01
77171;BME280;66144;50.020;14.422;2023-03-11T03:22:38;96900.97;;;3.66;65.55
77171;BME280;66144;50.020;14.422;2023-03-11T03:25:04;96905.38;;;3.66;65.43
77171;BME280;66144;50.020;14.422;2023-03-11T03:27:30;96911.28;;;3.61;66.19
77171;BME280;66144;50.020;14.422;2023-03-11T03:29:55;96911.03;;;3.63;66.85
77171;BME280;66144;50.020;14.422;2023-03-11T03:32:20;96920.75;;;3.51;64.83
77171;BME280;66144;50.020;14.422;2023-03-11T03:34:46;96927.06;;;3.65;65.12
77171;BME280;66144;50.020;14.422;2023-03-11T03:37:11;96925.47;;;3.59;64.31
77171;BME280;66144;50.020;14.422;2023-03-11T03:39:36;96939.69;;;3.61;64.67
77171;BME280;66144;50.020;14.422;2023-03-11T03:42:01;96929.78;;;3.53;63.79
77171;BME280;66144;50.020;14.422;2023-03-11T03:44:27;96944.84;;;3.61;64.09
77171;BME280;66144;50.020;14.422;2023-03-11T03:46:54;96940.94;;;3.59;63.84
77171;BME280;66144;50.020;14.422;2023-03-11T03:49:20;96942.16;;;3.46;63.26
77171;BME280;66144;50.020;14.422;2023-03-11T03:51:45;96951.28;;;3.59;63.83
77171;BME280;66144;50.020;14.422;2023-03-11T03:54:10;96950.19;;;3.55;62.77
77171;BME280;66144;50.020;14.422;2023-03-11T03:56:36;96955.84;;;3.52;62.63
77171;BME280;66144;50.020;14.422;2023-03-11T03:59:01;96966.47;;;3.55;62.81
77171;BME280;66144;50.020;14.422;2023-03-11T04:01:26;96966.72;;;3.54;62.55
77171;BME280;66144;50.020;14.422;2023-03-11T04:03:52;96981.16;;;3.55;63.04
77171;BME280;66144;50.020;14.422;2023-03-11T04:06:19;96982.19;;;3.54;62.67
77171;BME280;66144;50.020;14.422;2023-03-11T04:08:45;96954.78;;;3.47;62.14
77171;BME280;66144;50.020;14.422;2023-03-11T04:11:10;96981.41;;;3.53;62.52
77171;BME280;66144;50.020;14.422;2023-03-11T04:13:36;96995.59;;;3.51;62.00
77171;BME280;66144;50.020;14.422;2023-03-11T04:16:03;96994.06;;;3.55;61.32
77171;BME280;66144;50.020;14.422;2023-03-11T04:18:29;96996.94;;;3.58;62.15
77171;BME280;66144;50.020;14.422;2023-03-11T04:20:54;96998.13;;;3.45;61.89
77171;BME280;66144;50.020;14.422;2023-03-11T04:23:20;97013.66;;;3.51;62.14
77171;BME280;66144;50.020;14.422;2023-03-11T04:25:45;97008.72;;;3.49;61.87
77171;BME280;66144;50.020;14.422;2023-03-11T04:28:10;97019.56;;;3.46;61.25
77171;BME280;66144;50.020;14.422;2023-03-11T04:30:36;97026.53;;;3.45;61.71
77171;BME280;66144;50.020;14.422;2023-03-11T04:33:01;97012.91;;;3.55;61.63
77171;BME280;66144;50.020;14.422;2023-03-11T04:35:27;97025.47;;;3.46;61.52
77171;BME280;66144;50.020;14.422;2023-03-11T04:37:52;97037.94;;;3.55;61.32
77171;BME280;66144;50.020;14.422;2023-03-11T04:40:17;97030.13;;;3.44;60.99
77171;BME280;66144;50.020;14.422;2023-03-11T04:42:43;97032.03;;;3.32;60.79
77171;BME280;66144;50.020;14.422;2023-03-11T04:45:08;97021.19;;;3.30;61.17
77171;BME280;66144;50.020;14.422;2023-03-11T04:47:35;97046.97;;;3.30;60.40
77171;BME280;66144;50.020;14.422;2023-03-11T04:50:00;97058.31;;;3.29;60.59
77171;BME280;66144;50.020;14.422;2023-03-11T04:52:25;97069.00;;;3.38;61.36
77171;BME280;66144;50.020;14.422;2023-03-11T04:54:51;97063.78;;;3.33;60.49
77171;BME280;66144;50.020;14.422;2023-03-11T04:57:16;97086.16;;;3.27;60.61
77171;BME280;66144;50.020;14.422;2023-03-11T04:59:41;97081.28;;;3.31;61.52
77171;BME280;66144;50.020;14.422;2023-03-11T05:02:07;97079.88;;;3.18;60.63
77171;BME280;66144;50.020;14.422;2023-03-11T05:04:32;97092.63;;;3.30;61.87
77171;BME280;66144;50.020;14.422;2023-03-11T05:06:57;97093.41;;;3.30;61.08
77171;BME280;66144;50.020;14.422;2023-03-11T05:09:23;97112.47;;;3.24;61.54
77171;BME280;66144;50.020;14.422;2023-03-11T05:11:48;97113.16;;;3.20;62.43
77171;BME280;66144;50.020;14.422;2023-03-11T05:14:13;97126.38;;;3.23;62.54
77171;BME280;66144;50.020;14.422;2023-03-11T05:16:39;97131.75;;;3.22;62.61
77171;BME280;66144;50.020;14.422;2023-03-11T05:19:04;97144.44;;;3.23;62.35
77171;BME280;66144;50.020;14.422;2023-03-11T05:21:48;97129.28;;;3.10;62.62
77171;BME280;66144;50.020;14.422;2023-03-11T05:24:13;97166.78;;;3.18;62.94
77171;BME280;66144;50.020;14.422;2023-03-11T05:26:39;97163.31;;;3.07;63.33
77171;BME280;66144;50.020;14.422;2023-03-11T05:29:04;97167.19;;;3.09;63.68
77171;BME280;66144;50.020;14.422;2023-03-11T05:31:29;97171.19;;;3.00;63.65
77171;BME280;66144;50.020;14.422;2023-03-11T05:33:54;97165.97;;;2.95;63.31
77171;BME280;66144;50.020;14.422;2023-03-11T05:36:20;97191.03;;;3.00;63.98
77171;BME280;66144;50.020;14.422;2023-03-11T05:38:45;97214.16;;;2.95;63.88
77171;BME280;66144;50.020;14.422;2023-03-11T05:41:10;97200.50;;;2.94;63.80
77171;BME280;66144;50.020;14.422;2023-03-11T05:43:35;97212.38;;;2.95;64.01
77171;BME280;66144;50.020;14.422;2023-03-11T05:46:01;97218.22;;;2.91;63.91
77171;BME280;66144;50.020;14.422;2023-03-11T05:48:26;97210.97;;;2.88;64.04
77171;BME280;66144;50.020;14.422;2023-03-11T05:50:51;97229.97;;;2.82;64.03
77171;BME280;66144;50.020;14.422;2023-03-11T05:53:17;97232.69;;;2.92;64.39
77171;BME280;66144;50.020;14.422;2023-03-11T05:55:42;97235.03;;;2.76;63.87
77171;BME280;66144;50.020;14.422;2023-03-11T05:58:07;97228.25;;;2.87;63.86
77171;BME280;66144;50.020;14.422;2023-03-11T06:00:33;97237.50;;;2.71;64.25
77171;BME280;66144;50.020;14.422;2023-03-11T06:02:58;97241.50;;;2.79;64.05
77171;BME280;66144;50.020;14.422;2023-03-11T06:05:23;97253.72;;;2.84;63.73
77171;BME280;66144;50.020;14.422;2023-03-11T06:07:49;97262.00;;;2.86;63.78
77171;BME280;66144;50.020;14.422;2023-03-11T06:10:14;97267.38;;;3.01;63.96
77171;BME280;66144;50.020;14.422;2023-03-11T06:12:39;97286.69;;;2.98;64.59
77171;BME280;66144;50.020;14.422;2023-03-11T06:15:05;97285.22;;;3.02;64.15
77171;BME280;66144;50.020;14.422;2023-03-11T06:17:31;97287.22;;;3.00;63.84
77171;BME280;66144;50.020;14.422;2023-03-11T06:19:56;97289.72;;;3.12;63.73
77171;BME280;66144;50.020;14.422;2023-03-11T06:22:21;97303.03;;;3.21;63.97
77171;BME280;66144;50.020;14.422;2023-03-11T06:24:47;97306.22;;;3.28;64.08
77171;BME280;66144;50.020;14.422;2023-03-11T06:27:12;97301.69;;;3.18;63.57
77171;BME280;66144;50.020;14.422;2023-03-11T06:29:37;97323.25;;;3.29;64.05
77171;BME280;66144;50.020;14.422;2023-03-11T06:32:03;97328.28;;;3.35;63.30
77171;BME280;66144;50.020;14.422;2023-03-11T06:34:28;97317.09;;;3.30;62.46
77171;BME280;66144;50.020;14.422;2023-03-11T06:36:54;97332.41;;;3.36;62.49
77171;BME280;66144;50.020;14.422;2023-03-11T06:39:19;97350.81;;;3.40;62.20
77171;BME280;66144;50.020;14.422;2023-03-11T06:41:44;97350.25;;;3.38;62.10
77171;BME280;66144;50.020;14.422;2023-03-11T06:44:10;97349.25;;;3.39;61.63
77171;BME280;66144;50.020;14.422;2023-03-11T06:46:35;97366.44;;;3.50;61.97
77171;BME280;66144;50.020;14.422;2023-03-11T06:49:00;97365.09;;;3.47;61.50
77171;BME280;66144;50.020;14.422;2023-03-11T06:51:26;97371.28;;;3.46;60.00
77171;BME280;66144;50.020;14.422;2023-03-11T06:53:51;97386.38;;;3.55;61.11
77171;BME280;66144;50.020;14.422;2023-03-11T06:56:18;97400.28;;;3.54;60.04
77171;BME280;66144;50.020;14.422;2023-03-11T06:58:44;97394.53;;;3.63;59.99
77171;BME280;66144;50.020;14.422;2023-03-11T07:01:19;97397.56;;;3.60;59.53
77171;BME280;66144;50.020;14.422;2023-03-11T07:03:46;97409.06;;;3.69;59.90
77171;BME280;66144;50.020;14.422;2023-03-11T07:06:18;97420.88;;;3.65;59.74
77171;BME280;66144;50.020;14.422;2023-03-11T07:08:46;97432.69;;;3.61;58.77
77171;BME280;66144;50.020;14.422;2023-03-11T07:11:18;97442.16;;;3.56;59.19
77171;BME280;66144;50.020;14.422;2023-03-11T07:13:44;97427.31;;;3.63;58.64
77171;BME280;66144;50.020;14.422;2023-03-11T07:16:10;97443.81;;;3.62;58.61
77171;BME280;66144;50.020;14.422;2023-03-11T07:18:37;97442.84;;;3.68;58.54
77171;BME280;66144;50.020;14.422;2023-03-11T07:21:04;97454.03;;;3.73;58.28
77171;BME280;66144;50.020;14.422;2023-03-11T07:23:29;97453.72;;;3.70;59.00
77171;BME280;66144;50.020;14.422;2023-03-11T07:25:55;97465.00;;;3.64;59.40
77171;BME280;66144;50.020;14.422;2023-03-11T07:28:22;97468.91;;;3.66;58.54
77171;BME280;66144;50.020;14.422;2023-03-11T07:30:48;97485.94;;;3.67;58.99
77171;BME280;66144;50.020;14.422;2023-03-11T07:33:13;97477.44;;;3.67;60.11
77171;BME280;66144;50.020;14.422;2023-03-11T07:35:39;97492.28;;;3.60;58.37
77171;BME280;66144;50.020;14.422;2023-03-11T07:38:04;97500.13;;;3.65;59.12
77171;BME280;66144;50.020;14.422;2023-03-11T07:40:29;97503.78;;;3.69;59.04
77171;BME280;66144;50.020;14.422;2023-03-11T07:42:55;97511.41;;;3.75;58.20
77171;BME280;66144;50.020;14.422;2023-03-11T07:45:20;97511.63;;;3.74;58.68
77171;BME280;66144;50.020;14.422;2023-03-11T07:47:45;97507.94;;;3.70;58.42
77171;BME280;66144;50.020;14.422;2023-03-11T07:50:11;97515.69;;;3.70;58.72
77171;BME280;66144;50.020;14.422;2023-03-11T07:52:36;97520.63;;;3.71;59.38
77171;BME280;66144;50.020;14.422;2023-03-11T07:55:02;97522.50;;;3.76;59.12
77171;BME280;66144;50.020;14.422;2023-03-11T07:57:28;97531.13;;;3.81;59.79
77171;BME280;66144;50.020;14.422;2023-03-11T07:59:53;97518.22;;;3.81;59.75
77171;BME280;66144;50.020;14.422;2023-03-11T08:02:18;97526.91;;;3.92;61.06
77171;BME280;66144;50.020;14.422;2023-03-11T08:04:44;97529.34;;;3.82;60.19
77171;BME280;66144;50.020;14.422;2023-03-11T08:07:09;97530.59;;;3.79;59.58
77171;BME280;66144;50.020;14.422;2023-03-11T08:09:35;97520.78;;;3.65;59.97
77171;BME280;66144;50.020;14.422;2023-03-11T08:12:00;97537.34;;;3.69;60.99
77171;BME280;66144;50.020;14.422;2023-03-11T08:14:26;97549.25;;;3.70;60.22
77171;BME280;66144;50.020;14.422;2023-03-11T08:16:51;97555.19;;;3.70;59.93
77171;BME280;66144;50.020;14.422;2023-03-11T08:19:17;97569.72;;;3.88;60.34
77171;BME280;66144;50.020;14.422;2023-03-11T08:21:42;97564.72;;;3.98;60.04
77171;BME280;66144;50.020;14.422;2023-03-11T08:24:11;97574.13;;;4.04;59.71
77171;BME280;66144;50.020;14.422;2023-03-11T08:26:37;97578.19;;;4.00;59.01
77171;BME280;66144;50.020;14.422;2023-03-11T08:29:03;97583.19;;;4.07;58.74
77171;BME280;66144;50.020;14.422;2023-03-11T08:31:29;97590.09;;;4.01;57.96
77171;BME280;66144;50.020;14.422;2023-03-11T08:34:01;97599.22;;;4.21;58.66
77171;BME280;66144;50.020;14.422;2023-03-11T08:36:27;97599.47;;;4.07;58.29
77171;BME280;66144;50.020;14.422;2023-03-11T08:38:52;97606.38;;;4.02;58.25
77171;BME280;66144;50.020;14.422;2023-03-11T08:41:18;97604.88;;;4.06;58.13
77171;BME280;66144;50.020;14.422;2023-03-11T08:43:43;97613.41;;;4.06;59.18
77171;BME280;66144;50.020;14.422;2023-03-11T08:46:14;97607.56;;;4.11;58.35
77171;BME280;66144;50.020;14.422;2023-03-11T08:48:41;97624.75;;;4.05;59.62
77171;BME280;66144;50.020;14.422;2023-03-11T08:51:08;97630.00;;;3.94;58.60
77171;BME280;66144;50.020;14.422;2023-03-11T08:53:33;97623.72;;;3.90;59.21
77171;BME280;66144;50.020;14.422;2023-03-11T08:55:59;97634.88;;;4.07;59.34
77171;BME280;66144;50.020;14.422;2023-03-11T08:58:24;97631.22;;;4.03;58.12
77171;BME280;66144;50.020;14.422;2023-03-11T09:00:49;97648.13;;;4.10;58.09
77171;BME280;66144;50.020;14.422;2023-03-11T09:03:15;97659.00;;;4.12;57.88
77171;BME280;66144;50.020;14.422;2023-03-11T09:05:40;97652.97;;;4.24;58.69
77171;BME280;66144;50.020;14.422;2023-03-11T09:08:05;97645.31;;;4.29;57.05
77171;BME280;66144;50.020;14.422;2023-03-11T09:10:31;97649.34;;;4.36;57.42
77171;BME280;66144;50.020;14.422;2023-03-11T09:12:56;97656.78;;;4.33;56.98
77171;BME280;66144;50.020;14.422;2023-03-11T09:15:22;97667.09;;;4.33;57.37
77171;BME280;66144;50.020;14.422;2023-03-11T09:17:47;97672.38;;;4.38;56.42
77171;BME280;66144;50.020;14.422;2023-03-11T09:20:13;97674.19;;;4.54;56.33
77171;BME280;66144;50.020;14.422;2023-03-11T09:22:39;97682.72;;;4.38;55.85
77171;BME280;66144;50.020;14.422;2023-03-11T09:25:04;97687.88;;;4.38;56.23
77171;BME280;66144;50.020;14.422;2023-03-11T09:27:30;97680.59;;;4.35;57.41
77171;BME280;66144;50.020;14.422;2023-03-11T09:29:55;97709.94;;;4.29;56.64
77171;BME280;66144;50.020;14.422;2023-03-11T09:32:21;97705.44;;;4.24;56.68
77171;BME280;66144;50.020;14.422;2023-03-11T09:34:46;97711.78;;;4.16;57.08
77171;BME280;66144;50.020;14.422;2023-03-11T09:37:11;97727.00;;;4.30;58.16
77171;BME280;66144;50.020;14.422;2023-03-11T09:39:37;97737.63;;;4.16;57.23
77171;BME280;66144;50.020;14.422;2023-03-11T09:52:53;97751.84;;;4.31;56.63
77171;BME280;66144;50.020;14.422;2023-03-11T09:58:16;97747.88;;;4.40;56.44
77171;BME280;66144;50.020;14.422;2023-03-11T10:00:44;97761.28;;;4.37;55.76
77171;BME280;66144;50.020;14.422;2023-03-11T10:03:28;97765.75;;;4.41;55.13
77171;BME280;66144;50.020;14.422;2023-03-11T10:06:27;97779.91;;;4.39;55.93
77171;BME280;66144;50.020;14.422;2023-03-11T10:25:14;97793.94;;;5.33;52.29
77171;BME280;66144;50.020;14.422;2023-03-11T10:28:00;97796.44;;;5.28;53.18
77171;BME280;66144;50.020;14.422;2023-03-11T10:30:44;97785.75;;;5.08;52.39
77171;BME280;66144;50.020;14.422;2023-03-11T10:33:19;97811.09;;;5.22;52.50
77171;BME280;66144;50.020;14.422;2023-03-11T10:35:50;97813.63;;;5.34;52.68
77171;BME280;66144;50.020;14.422;2023-03-11T10:38:23;97804.53;;;5.15;51.70
77171;BME280;66144;50.020;14.422;2023-03-11T10:40:53;97816.13;;;5.46;53.53
77171;BME280;66144;50.020;14.422;2023-03-11T10:43:30;97808.13;;;5.47;53.23
77171;BME280;66144;50.020;14.422;2023-03-11T10:45:58;97790.16;;;5.24;52.60
77171;BME280;66144;50.020;14.422;2023-03-11T10:48:24;97818.56;;;5.19;52.93
77171;BME280;66144;50.020;14.422;2023-03-11T10:53:44;97825.22;;;5.15;53.32
77171;BME280;66144;50.020;14.422;2023-03-11T10:58:51;97838.72;;;4.89;52.79
77171;BME280;66144;50.020;14.422;2023-03-11T11:01:17;97843.75;;;4.78;53.51
77171;BME280;66144;50.020;14.422;2023-03-11T11:03:46;97850.66;;;4.61;53.28
77171;BME280;66144;50.020;14.422;2023-03-11T11:06:21;97838.13;;;4.41;52.87
77171;BME280;66144;50.020;14.422;2023-03-11T11:08:47;97858.88;;;4.46;54.55
77171;BME280;66144;50.020;14.422;2023-03-11T11:11:21;97856.13;;;4.25;53.83
77171;BME280;66144;50.020;14.422;2023-03-11T11:13:57;97848.03;;;4.33;54.01
77171;BME280;66144;50.020;14.422;2023-03-11T11:16:23;97854.53;;;4.35;54.67
77171;BME280;66144;50.020;14.422;2023-03-11T11:19:09;97852.63;;;4.42;55.25
77171;BME280;66144;50.020;14.422;2023-03-11T11:24:24;97853.16;;;4.56;54.53
77171;BME280;66144;50.020;14.422;2023-03-11T11:29:29;97862.88;;;4.66;55.12
77171;BME280;66144;50.020;14.422;2023-03-11T11:32:14;97857.22;;;4.80;55.41
77171;BME280;66144;50.020;14.422;2023-03-11T11:37:29;97852.78;;;4.93;54.57
77171;BME280;66144;50.020;14.422;2023-03-11T11:42:37;97855.69;;;4.96;54.17
77171;BME280;66144;50.020;14.422;2023-03-11T11:47:43;97866.88;;;5.30;53.33
77171;BME280;66144;50.020;14.422;2023-03-11T11:50:17;97864.44;;;5.40;55.24
77171;BME280;66144;50.020;14.422;2023-03-11T11:52:50;97869.38;;;5.42;52.04
77171;BME280;66144;50.020;14.422;2023-03-11T11:55:28;97865.88;;;5.48;52.69
77171;BME280;66144;50.020;14.422;2023-03-11T11:57:55;97869.00;;;5.16;51.26
77171;BME280;66144;50.020;14.422;2023-03-11T12:00:23;97866.00;;;5.25;51.50
77171;BME280;66144;50.020;14.422;2023-03-11T12:03:32;97870.09;;;4.92;51.96
77171;BME280;66144;50.020;14.422;2023-03-11T12:06:18;97878.09;;;4.91;53.69
77171;BME280;66144;50.020;14.422;2023-03-11T12:11:50;97897.63;;;4.70;55.65
77171;BME280;66144;50.020;14.422;2023-03-11T12:14:28;97896.72;;;4.64;57.16
77171;BME280;66144;50.020;14.422;2023-03-11T12:16:59;97907.78;;;4.60;57.76
77171;BME280;66144;50.020;14.422;2023-03-11T12:25:27;97907.78;;;4.48;56.85
77171;BME280;66144;50.020;14.422;2023-03-11T12:30:36;97905.41;;;4.58;56.40
77171;BME280;66144;50.020;14.422;2023-03-11T12:35:56;97916.16;;;4.78;55.94
77171;BME280;66144;50.020;14.422;2023-03-11T12:38:29;97908.41;;;4.67;54.11
77171;BME280;66144;50.020;14.422;2023-03-11T12:46:06;97926.63;;;4.72;53.75
77171;BME280;66144;50.020;14.422;2023-03-11T12:48:51;97935.00;;;4.50;54.16
77171;BME280;66144;50.020;14.422;2023-03-11T12:57:34;97931.63;;;4.50;54.52
77171;BME280;66144;50.020;14.422;2023-03-11T13:07:45;97934.72;;;4.64;53.90
77171;BME280;66144;50.020;14.422;2023-03-11T13:15:52;97947.31;;;4.72;54.15
77171;BME280;66144;50.020;14.422;2023-03-11T13:18:26;97950.84;;;4.54;52.90
77171;BME280;66144;50.020;14.422;2023-03-11T13:21:00;97947.25;;;4.55;52.75
77171;BME280;66144;50.020;14.422;2023-03-11T13:30:55;97934.66;;;4.59;52.93
77171;BME280;66144;50.020;14.422;2023-03-11T13:44:12;97951.09;;;5.49;49.00
77171;BME280;66144;50.020;14.422;2023-03-11T13:46:40;97953.78;;;5.54;49.62
77171;BME280;66144;50.020;14.422;2023-03-11T13:49:32;97960.91;;;5.47;50.73
77171;BME280;66144;50.020;14.422;2023-03-11T13:52:00;97970.09;;;5.27;49.81
77171;BME280;66144;50.020;14.422;2023-03-11T13:54:38;97968.19;;;5.22;49.76
77171;BME280;66144;50.020;14.422;2023-03-11T13:57:17;97981.63;;;5.19;48.84
77171;BME280;66144;50.020;14.422;2023-03-11T13:59:50;97975.91;;;5.17;51.32
77171;BME280;66144;50.020;14.422;2023-03-11T14:02:18;97986.44;;;5.27;50.39
77171;BME280;66144;50.020;14.422;2023-03-11T14:05:25;97986.25;;;5.17;50.35
77171;BME280;66144;50.020;14.422;2023-03-11T14:07:51;97988.28;;;5.15;49.75
77171;BME280;66144;50.020;14.422;2023-03-11T14:10:26;97989.63;;;5.06;50.05
77171;BME280;66144;50.020;14.422;2023-03-11T14:13:14;97995.03;;;5.04;49.55
77171;BME280;66144;50.020;14.422;2023-03-11T14:15:45;98003.59;;;5.05;51.06
77171;BME280;66144;50.020;14.422;2023-03-11T14:20:51;98018.94;;;4.95;50.15
77171;BME280;66144;50.020;14.422;2023-03-11T14:23:18;98020.63;;;4.89;51.69
77171;BME280;66144;50.020;14.422;2023-03-11T14:25:44;98035.16;;;4.78;55.56
77171;BME280;66144;50.020;14.422;2023-03-11T14:28:17;98040.09;;;4.57;58.47
77171;BME280;66144;50.020;14.422;2023-03-11T14:30:55;98033.34;;;4.44;60.26
77171;BME280;66144;50.020;14.422;2023-03-11T14:33:22;98038.84;;;4.36;60.57
77171;BME280;66144;50.020;14.422;2023-03-11T14:35:52;98045.47;;;4.43;61.07
77171;BME280;66144;50.020;14.422;2023-03-11T14:38:27;98049.84;;;4.20;61.50
77171;BME280;66144;50.020;14.422;2023-03-11T14:40:57;98050.66;;;4.20;62.13
77171;BME280;66144;50.020;14.422;2023-03-11T14:43:23;98059.94;;;4.09;62.24
77171;BME280;66144;50.020;14.422;2023-03-11T14:45:50;98054.41;;;4.06;63.21
77171;BME280;66144;50.020;14.422;2023-03-11T14:50:52;98063.72;;;3.95;62.23
77171;BME280;66144;50.020;14.422;2023-03-11T15:03:38;98079.97;;;3.84;64.31
77171;BME280;66144;50.020;14.422;2023-03-11T15:06:13;98076.63;;;3.84;62.85
77171;BME280;66144;50.020;14.422;2023-03-11T15:08:46;98080.00;;;3.96;62.61
77171;BME280;66144;50.020;14.422;2023-03-11T15:13:43;98077.44;;;3.96;61.59
77171;BME280;66144;50.020;14.422;2023-03-11T15:16:31;98078.78;;;3.98;60.85